createdAt,value
2023-03-25T00:00:20.744Z,11.60
2023-03-25T00:02:52.629Z,11.00
2023-03-25T00:05:22.678Z,11.10
2023-03-25T00:07:52.381Z,10.80
2023-03-25T00:10:19.952Z,10.90
2023-03-25T00:12:46.828Z,11.00
2023-03-25T00:15:16.409Z,10.90
2023-03-25T00:17:44.302Z,10.80
2023-03-25T00:20:18.360Z,10.90
2023-03-25T00:22:47.421Z,10.70
2023-03-25T00:25:19.257Z,10.70
2023-03-25T00:27:50.670Z,10.70
2023-03-25T00:30:19.220Z,10.60
2023-03-25T00:32:49.788Z,10.60
2023-03-25T00:35:19.560Z,10.50
2023-03-25T00:37:48.129Z,10.60
2023-03-25T00:40:15.029Z,10.50
2023-03-25T00:42:44.757Z,11.30
2023-03-25T00:45:12.642Z,10.60
2023-03-25T00:47:41.725Z,10.50
2023-03-25T00:50:08.759Z,10.50
2023-03-25T00:52:37.636Z,10.50
2023-03-25T00:55:09.255Z,10.40
2023-03-25T00:57:38.515Z,10.40
2023-03-25T01:00:13.019Z,10.40
2023-03-25T01:02:39.787Z,10.00
2023-03-25T01:05:11.359Z,10.40
2023-03-25T01:07:42.091Z,10.30
2023-03-25T01:10:09.912Z,10.30
2023-03-25T01:12:41.218Z,10.30
2023-03-25T01:15:13.219Z,10.70
2023-03-25T01:17:44.543Z,10.20
2023-03-25T01:20:13.722Z,10.20
2023-03-25T01:25:07.860Z,10.30
2023-03-25T01:27:39.313Z,10.30
2023-03-25T01:30:09.026Z,10.60
2023-03-25T01:32:35.804Z,10.30
2023-03-25T01:35:04.456Z,10.30
2023-03-25T01:37:34.062Z,10.10
2023-03-25T01:40:07.886Z,10.30
2023-03-25T01:42:36.855Z,10.20
2023-03-25T01:45:27.889Z,10.10
2023-03-25T01:48:18.929Z,10.10
2023-03-25T01:50:52.264Z,10.10
2023-03-25T01:53:19.083Z,10.00
2023-03-25T01:55:53.001Z,10.10
2023-03-25T01:58:24.651Z,10.40
2023-03-25T02:00:54.937Z,10.10
2023-03-25T02:03:24.081Z,10.00
2023-03-25T02:05:51.076Z,9.80
2023-03-25T02:08:21.494Z,9.80
2023-03-25T02:10:53.427Z,10.00
2023-03-25T02:13:23.569Z,10.00
2023-03-25T02:16:13.521Z,10.00
2023-03-25T02:18:52.343Z,10.00
2023-03-25T02:21:46.033Z,10.00
2023-03-25T02:24:46.778Z,10.10
2023-03-25T02:27:45.943Z,10.10
2023-03-25T02:30:31.456Z,10.20
2023-03-25T02:33:13.362Z,10.20
2023-03-25T02:36:12.279Z,10.20
2023-03-25T02:39:01.462Z,10.10
2023-03-25T02:41:44.048Z,10.30
2023-03-25T02:44:43.314Z,10.10
2023-03-25T02:47:16.885Z,10.00
2023-03-25T02:49:48.655Z,10.60
2023-03-25T02:52:19.955Z,10.00
2023-03-25T02:54:49.307Z,9.90
2023-03-25T02:57:19.133Z,10.00
2023-03-25T02:59:50.796Z,9.90
2023-03-25T03:02:19.399Z,9.90
2023-03-25T03:04:52.375Z,9.80
2023-03-25T03:07:31.984Z,10.40
2023-03-25T03:10:13.321Z,10.20
2023-03-25T03:12:58.624Z,9.60
2023-03-25T03:15:47.060Z,9.70
2023-03-25T03:18:27.162Z,9.70
2023-03-25T03:21:30.003Z,9.70
2023-03-25T03:24:08.442Z,9.70
2023-03-25T03:26:58.565Z,9.60
2023-03-25T03:29:39.138Z,9.60
2023-03-25T03:32:13.867Z,9.60
2023-03-25T03:34:59.544Z,9.60
2023-03-25T03:37:39.054Z,9.70
2023-03-25T03:40:09.657Z,9.70
2023-03-25T03:42:44.934Z,9.50
2023-03-25T03:45:36.122Z,9.50
2023-03-25T03:48:08.214Z,9.40
2023-03-25T03:50:44.519Z,9.50
2023-03-25T03:53:39.576Z,9.40
2023-03-25T03:56:13.704Z,9.40
2023-03-25T03:58:43.004Z,9.40
2023-03-25T04:01:36.862Z,10.00
2023-03-25T04:04:07.531Z,9.40
2023-03-25T04:06:41.856Z,9.40
2023-03-25T04:09:41.865Z,10.00
2023-03-25T04:12:20.799Z,9.30
2023-03-25T04:14:50.201Z,9.50
2023-03-25T04:17:17.577Z,9.30
2023-03-25T04:19:48.864Z,9.30
2023-03-25T04:22:18.331Z,9.20
2023-03-25T04:24:45.265Z,9.20
2023-03-25T04:27:15.874Z,9.20
2023-03-25T04:29:45.044Z,9.10
2023-03-25T04:32:14.822Z,9.10
2023-03-25T04:34:43.980Z,9.10
2023-03-25T04:37:11.457Z,9.00
2023-03-25T04:39:40.575Z,9.00
2023-03-25T04:42:13.887Z,8.90
2023-03-25T04:44:40.649Z,9.00
2023-03-25T04:47:11.983Z,9.30
2023-03-25T04:52:09.327Z,9.00
2023-03-25T04:54:38.548Z,9.00
2023-03-25T04:57:05.376Z,8.60
2023-03-25T04:59:32.097Z,8.90
2023-03-25T05:01:58.790Z,9.00
2023-03-25T05:04:25.635Z,8.80
2023-03-25T05:06:56.801Z,8.90
2023-03-25T05:09:23.801Z,8.90
2023-03-25T05:11:53.933Z,8.90
2023-03-25T05:14:22.064Z,8.80
2023-03-25T05:16:51.360Z,8.80
2023-03-25T05:19:23.984Z,8.80
2023-03-25T05:21:52.897Z,8.80
2023-03-25T05:24:19.645Z,8.90
2023-03-25T05:26:46.409Z,8.90
2023-03-25T05:29:15.656Z,8.90
2023-03-25T05:31:46.798Z,8.90
2023-03-25T05:34:14.709Z,9.20
2023-03-25T05:36:41.809Z,9.00
2023-03-25T05:41:39.261Z,9.10
2023-03-25T05:44:07.494Z,9.00
2023-03-25T05:46:37.133Z,9.00
2023-03-25T05:49:06.563Z,9.00
2023-03-25T05:51:37.801Z,9.00
2023-03-25T05:54:10.721Z,9.10
2023-03-25T05:56:38.133Z,9.10
2023-03-25T05:59:04.942Z,9.10
2023-03-25T06:01:34.419Z,9.10
2023-03-25T06:04:02.779Z,9.10
2023-03-25T06:06:33.838Z,9.60
2023-03-25T06:09:04.200Z,9.10
2023-03-25T06:11:38.428Z,9.10
2023-03-25T06:14:06.511Z,9.10
2023-03-25T06:16:33.860Z,9.20
2023-03-25T06:19:01.086Z,9.90
2023-03-25T06:21:29.299Z,9.20
2023-03-25T06:24:04.883Z,9.30
2023-03-25T06:26:32.758Z,9.30
2023-03-25T06:31:34.137Z,9.40
2023-03-25T06:34:01.511Z,11.20
2023-03-25T06:36:34.764Z,9.40
2023-03-25T06:39:01.595Z,9.50
2023-03-25T06:41:28.406Z,9.50
2023-03-25T06:43:55.260Z,9.70
2023-03-25T06:46:24.670Z,9.70
2023-03-25T06:48:51.390Z,9.80
2023-03-25T06:51:18.140Z,10.00
2023-03-25T06:53:47.098Z,10.00
2023-03-25T06:56:13.936Z,10.20
2023-03-25T06:58:41.794Z,10.40
2023-03-25T07:01:08.862Z,10.50
2023-03-25T07:03:38.387Z,10.50
2023-03-25T07:06:07.823Z,10.50
2023-03-25T07:08:37.026Z,10.70
2023-03-25T07:11:06.090Z,10.60
2023-03-25T07:13:35.080Z,10.50
2023-03-25T07:16:04.547Z,10.60
2023-03-25T07:18:33.516Z,10.70
2023-03-25T07:21:00.344Z,10.90
2023-03-25T07:23:27.085Z,10.90
2023-03-25T07:25:53.963Z,11.00
2023-03-25T07:28:21.380Z,11.00
2023-03-25T07:30:48.101Z,11.00
2023-03-25T07:33:17.262Z,11.30
2023-03-25T07:35:43.966Z,11.20
2023-03-25T07:38:10.876Z,11.40
2023-03-25T07:40:38.178Z,11.70
2023-03-25T07:43:04.992Z,11.90
2023-03-25T07:45:31.901Z,12.00
2023-03-25T07:48:16.662Z,12.30
2023-03-25T07:50:45.982Z,12.60
2023-03-25T07:53:12.697Z,12.30
2023-03-25T07:55:39.436Z,12.20
2023-03-25T07:58:08.467Z,12.20
2023-03-25T08:00:37.489Z,12.10
2023-03-25T08:03:07.718Z,12.10
2023-03-25T08:05:34.560Z,12.30
2023-03-25T08:10:28.628Z,11.80
2023-03-25T08:12:55.513Z,11.70
2023-03-25T08:17:52.611Z,11.50
2023-03-25T08:20:20.277Z,11.40
2023-03-25T08:25:16.758Z,11.40
2023-03-25T08:27:43.728Z,11.30
2023-03-25T08:30:14.112Z,11.50
2023-03-25T08:32:46.290Z,11.60
2023-03-25T08:35:13.625Z,11.80
2023-03-25T08:37:40.369Z,11.60
2023-03-25T08:40:11.171Z,11.60
2023-03-25T08:42:38.738Z,11.50
2023-03-25T08:45:08.670Z,11.50
2023-03-25T08:47:35.503Z,11.50
2023-03-25T08:50:04.357Z,12.30
2023-03-25T08:52:31.166Z,11.60
2023-03-25T08:54:57.853Z,11.60
2023-03-25T08:57:24.620Z,11.60
2023-03-25T08:59:53.543Z,11.90
2023-03-25T09:02:20.420Z,11.60
2023-03-25T09:04:50.322Z,11.70
2023-03-25T09:07:19.799Z,11.70
2023-03-25T09:09:48.802Z,11.80
2023-03-25T09:12:15.546Z,11.90
2023-03-25T09:14:45.200Z,12.00
2023-03-25T09:17:11.932Z,12.20
2023-03-25T09:19:38.714Z,12.20
2023-03-25T09:22:08.207Z,12.40
2023-03-25T09:24:37.470Z,12.70
2023-03-25T09:27:04.240Z,12.90
2023-03-25T09:29:31.447Z,13.10
2023-03-25T09:32:01.051Z,13.10
2023-03-25T09:34:28.488Z,13.30
2023-03-25T09:36:56.493Z,13.40
2023-03-25T09:39:23.530Z,13.80
2023-03-25T09:42:04.651Z,13.70
2023-03-25T09:44:54.416Z,13.90
2023-03-25T09:47:23.158Z,14.10
2023-03-25T09:49:58.869Z,14.20
2023-03-25T09:52:34.900Z,14.20
2023-03-25T09:55:07.567Z,14.00
2023-03-25T09:57:46.370Z,14.10
2023-03-25T10:00:36.527Z,14.20
2023-03-25T10:03:23.212Z,14.30
2023-03-25T10:06:31.753Z,14.40
2023-03-25T10:09:35.011Z,14.50
2023-03-25T10:12:16.282Z,14.80
2023-03-25T10:15:02.042Z,14.70
2023-03-25T10:17:34.678Z,15.20
2023-03-25T10:20:19.447Z,15.50
2023-03-25T10:23:23.849Z,15.70
2023-03-25T10:25:59.857Z,15.70
2023-03-25T10:28:43.565Z,15.60
2023-03-25T10:31:17.314Z,15.70
2023-03-25T10:33:56.521Z,16.10
2023-03-25T10:36:49.266Z,16.30
2023-03-25T10:39:23.997Z,16.40
2023-03-25T10:42:04.473Z,16.30
2023-03-25T10:44:31.288Z,16.20
2023-03-25T10:47:14.927Z,16.40
2023-03-25T10:49:51.323Z,16.30
2023-03-25T10:52:20.598Z,16.30
2023-03-25T10:54:53.615Z,16.30
2023-03-25T10:57:30.873Z,16.70
2023-03-25T11:00:18.299Z,17.10
2023-03-25T11:02:48.424Z,17.70
2023-03-25T11:05:28.288Z,18.00
2023-03-25T11:08:08.762Z,18.00
2023-03-25T11:10:49.052Z,18.10
2023-03-25T11:13:20.570Z,18.00
2023-03-25T11:15:48.446Z,17.80
2023-03-25T11:18:37.945Z,17.40
2023-03-25T11:21:13.921Z,17.30
2023-03-25T11:23:51.563Z,17.40
2023-03-25T11:26:30.294Z,17.70
2023-03-25T11:29:02.420Z,17.80
2023-03-25T11:34:18.734Z,18.00
2023-03-25T11:37:00.513Z,18.20
2023-03-25T11:39:33.386Z,18.50
2023-03-25T11:42:07.851Z,18.70
2023-03-25T11:44:34.737Z,19.10
2023-03-25T11:47:11.869Z,19.20
2023-03-25T11:49:41.376Z,19.40
2023-03-25T11:52:14.841Z,19.60
2023-03-25T11:54:44.665Z,19.90
2023-03-25T11:57:32.259Z,20.30
2023-03-25T12:00:12.531Z,20.20
2023-03-25T12:02:43.031Z,20.30
2023-03-25T12:05:12.265Z,20.40
2023-03-25T12:07:43.406Z,20.50
2023-03-25T12:10:22.332Z,20.60
2023-03-25T12:12:54.843Z,20.90
2023-03-25T12:15:42.546Z,20.70
2023-03-25T12:18:30.863Z,20.70
2023-03-25T12:21:18.718Z,20.40
2023-03-25T12:24:06.994Z,20.20
2023-03-25T12:26:57.865Z,19.80
2023-03-25T12:29:52.477Z,19.50
2023-03-25T12:32:52.295Z,19.10
2023-03-25T12:35:38.038Z,18.90
2023-03-25T12:38:22.518Z,18.60
2023-03-25T12:41:10.563Z,18.30
2023-03-25T12:43:55.736Z,18.20
2023-03-25T12:46:31.360Z,18.30
2023-03-25T12:49:21.910Z,18.30
2023-03-25T12:52:00.322Z,18.40
2023-03-25T12:54:55.707Z,18.40
2023-03-25T12:57:47.501Z,18.80
2023-03-25T13:00:38.940Z,18.80
2023-03-25T13:03:19.415Z,18.70
2023-03-25T13:05:57.358Z,18.40
2023-03-25T13:08:30.666Z,18.10
2023-03-25T13:11:06.403Z,17.60
2023-03-25T13:13:35.954Z,17.50
2023-03-25T13:16:09.197Z,17.80
2023-03-25T13:18:46.179Z,17.50
2023-03-25T13:21:15.710Z,17.50
2023-03-25T13:23:46.784Z,17.60
2023-03-25T13:26:21.472Z,17.60
2023-03-25T13:28:58.214Z,17.60
2023-03-25T13:31:38.051Z,17.60
2023-03-25T13:34:39.689Z,17.60
2023-03-25T13:37:24.178Z,17.60
2023-03-25T13:39:53.197Z,17.50
2023-03-25T13:42:28.222Z,17.50
2023-03-25T13:44:57.545Z,17.50
2023-03-25T13:47:31.866Z,17.50
2023-03-25T13:50:04.386Z,17.30
2023-03-25T13:52:39.799Z,17.40
2023-03-25T13:55:16.877Z,17.40
2023-03-25T13:58:15.478Z,17.50
2023-03-25T14:01:14.672Z,17.70
2023-03-25T14:04:10.882Z,17.90
2023-03-25T14:06:53.885Z,17.80
2023-03-25T14:09:39.091Z,17.80
2023-03-25T14:12:15.216Z,17.80
2023-03-25T14:14:51.197Z,17.70
2023-03-25T14:17:19.161Z,17.60
2023-03-25T14:19:55.194Z,17.50
2023-03-25T14:22:26.286Z,17.30
2023-03-25T14:24:53.787Z,17.20
2023-03-25T14:27:34.050Z,17.20
2023-03-25T14:30:04.734Z,17.10
2023-03-25T14:32:39.495Z,17.10
2023-03-25T14:35:34.415Z,17.10
2023-03-25T14:38:21.974Z,17.00
2023-03-25T14:41:03.047Z,17.00
2023-03-25T14:43:36.133Z,17.00
2023-03-25T14:46:18.293Z,17.00
2023-03-25T14:48:51.612Z,17.00
2023-03-25T14:51:23.562Z,16.90
2023-03-25T14:53:52.202Z,16.80
2023-03-25T14:56:24.517Z,16.70
2023-03-25T14:59:01.475Z,16.70
2023-03-25T15:01:33.749Z,16.60
2023-03-25T15:04:18.499Z,16.60
2023-03-25T15:06:49.011Z,16.60
2023-03-25T15:09:18.369Z,16.60
2023-03-25T15:11:58.212Z,16.70
2023-03-25T15:14:34.722Z,16.70
2023-03-25T15:17:05.590Z,16.70
2023-03-25T15:20:09.035Z,16.80
2023-03-25T15:22:36.120Z,16.90
2023-03-25T15:25:12.599Z,16.90
2023-03-25T15:28:16.875Z,16.80
2023-03-25T15:30:54.921Z,16.80
2023-03-25T15:33:42.615Z,16.80
2023-03-25T15:36:12.428Z,16.80
2023-03-25T15:39:06.916Z,16.80
2023-03-25T15:42:04.262Z,16.70
2023-03-25T15:44:42.469Z,16.80
2023-03-25T15:47:24.006Z,16.90
2023-03-25T15:50:06.401Z,16.80
2023-03-25T15:52:52.349Z,16.80
2023-03-25T15:55:31.311Z,16.80
2023-03-25T15:58:08.501Z,16.70
2023-03-25T16:00:42.206Z,16.80
2023-03-25T16:03:15.562Z,16.80
2023-03-25T16:05:57.354Z,16.80
2023-03-25T16:08:37.920Z,16.70
2023-03-25T16:11:28.678Z,16.80
2023-03-25T16:14:03.310Z,17.10
2023-03-25T16:16:34.596Z,16.70
2023-03-25T16:19:03.865Z,16.70
2023-03-25T16:21:33.648Z,16.90
2023-03-25T16:24:04.982Z,16.80
2023-03-25T16:26:44.288Z,16.80
2023-03-25T16:29:19.952Z,16.80
2023-03-25T16:31:56.525Z,16.80
2023-03-25T16:34:24.295Z,16.90
2023-03-25T16:36:52.634Z,16.90
2023-03-25T16:39:20.131Z,17.00
2023-03-25T16:41:49.578Z,17.00
2023-03-25T16:44:24.417Z,17.10
2023-03-25T16:46:53.476Z,17.00
2023-03-25T16:49:24.806Z,17.00
2023-03-25T16:51:55.371Z,17.00
2023-03-25T16:54:31.141Z,16.90
2023-03-25T16:57:01.081Z,16.70
2023-03-25T16:59:32.775Z,16.50
2023-03-25T17:02:01.461Z,16.40
2023-03-25T17:04:43.940Z,16.30
2023-03-25T17:07:30.456Z,16.30
2023-03-25T17:10:00.711Z,16.00
2023-03-25T17:12:31.687Z,15.90
2023-03-25T17:15:09.312Z,15.80
2023-03-25T17:17:51.068Z,15.60
2023-03-25T17:20:39.900Z,15.50
2023-03-25T17:23:10.707Z,15.90
2023-03-25T17:25:50.509Z,15.40
2023-03-25T17:28:22.727Z,14.90
2023-03-25T17:30:49.851Z,14.80
2023-03-25T17:33:39.115Z,14.70
2023-03-25T17:36:10.827Z,14.60
2023-03-25T17:38:50.343Z,14.50
2023-03-25T17:41:18.585Z,14.50
2023-03-25T17:43:51.287Z,14.30
2023-03-25T17:46:23.590Z,14.20
2023-03-25T17:48:53.335Z,14.10
2023-03-25T17:51:21.559Z,13.90
2023-03-25T17:53:49.402Z,13.90
2023-03-25T17:56:20.058Z,13.70
2023-03-25T18:01:14.690Z,13.60
2023-03-25T18:06:08.861Z,13.40
2023-03-25T18:08:38.306Z,13.30
2023-03-25T18:11:09.574Z,13.30
2023-03-25T18:13:37.601Z,13.20
2023-03-25T18:16:07.318Z,13.10
2023-03-25T18:18:34.036Z,13.10
2023-03-25T18:21:03.675Z,13.10
2023-03-25T18:23:33.352Z,13.90
2023-03-25T18:26:00.407Z,12.80
2023-03-25T18:28:27.284Z,12.80
2023-03-25T18:30:56.592Z,12.80
2023-03-25T18:33:26.517Z,12.70
2023-03-25T18:38:26.284Z,12.60
2023-03-25T18:40:55.151Z,12.40
2023-03-25T18:43:22.812Z,12.40
2023-03-25T18:45:49.763Z,12.30
2023-03-25T18:48:20.901Z,12.20
2023-03-25T18:50:57.587Z,12.20
2023-03-25T18:53:28.994Z,12.20
2023-03-25T18:56:01.014Z,12.20
2023-03-25T18:58:33.583Z,12.00
2023-03-25T19:01:02.252Z,12.00
2023-03-25T19:03:38.659Z,11.90
2023-03-25T19:06:13.264Z,11.90
2023-03-25T19:08:43.265Z,11.80
2023-03-25T19:11:19.904Z,12.00
2023-03-25T19:16:15.527Z,11.80
2023-03-25T19:21:14.125Z,11.70
2023-03-25T19:23:45.873Z,11.70
2023-03-25T19:26:17.942Z,11.70
2023-03-25T19:28:49.271Z,11.60
2023-03-25T19:31:16.499Z,11.70
2023-03-25T19:33:45.683Z,11.60
2023-03-25T19:36:18.909Z,11.60
2023-03-25T19:41:18.155Z,11.50
2023-03-25T19:43:47.494Z,11.50
2023-03-25T19:46:14.514Z,11.50
2023-03-25T19:53:40.283Z,11.20
2023-03-25T19:56:07.341Z,11.30
2023-03-25T19:58:34.735Z,11.40
2023-03-25T20:01:01.754Z,11.30
2023-03-25T20:03:35.473Z,11.20
2023-03-25T20:06:06.458Z,11.20
2023-03-25T20:08:33.472Z,11.10
2023-03-25T20:11:01.231Z,11.20
2023-03-25T20:13:28.246Z,11.00
2023-03-25T20:18:22.674Z,10.90
2023-03-25T20:20:51.779Z,10.90
2023-03-25T20:23:18.522Z,10.80
2023-03-25T20:25:47.181Z,10.80
2023-03-25T20:28:18.391Z,10.70
2023-03-25T20:30:46.240Z,10.60
2023-03-25T20:33:13.118Z,10.70
2023-03-25T20:35:40.047Z,10.60
2023-03-25T20:38:06.841Z,10.60
2023-03-25T20:40:44.050Z,10.60
2023-03-25T20:43:14.122Z,10.70
2023-03-25T20:45:41.604Z,12.20
2023-03-25T20:48:08.813Z,10.40
2023-03-25T20:50:36.047Z,10.40
2023-03-25T20:53:04.174Z,10.40
2023-03-25T20:55:31.208Z,10.30
2023-03-25T20:57:57.943Z,10.30
2023-03-25T21:00:24.750Z,10.50
2023-03-25T21:02:57.574Z,10.30
2023-03-25T21:05:24.414Z,10.20
2023-03-25T21:07:51.131Z,10.20
2023-03-25T21:10:20.489Z,10.20
2023-03-25T21:12:47.964Z,10.20
2023-03-25T21:15:15.178Z,10.70
2023-03-25T21:17:44.484Z,10.20
2023-03-25T21:20:12.052Z,10.20
2023-03-25T21:22:43.876Z,10.20
2023-03-25T21:25:14.554Z,10.30
2023-03-25T21:27:45.040Z,10.60
2023-03-25T21:30:12.914Z,10.20
2023-03-25T21:32:40.085Z,10.20
2023-03-25T21:35:08.055Z,10.20
2023-03-25T21:37:38.410Z,10.10
2023-03-25T21:40:10.017Z,10.10
2023-03-25T21:42:42.389Z,10.00
2023-03-25T21:45:15.419Z,10.00
2023-03-25T21:47:44.972Z,10.40
2023-03-25T21:50:16.438Z,9.90
2023-03-25T21:52:46.806Z,9.90
2023-03-25T21:55:16.754Z,9.90
2023-03-25T21:57:44.938Z,9.90
2023-03-25T22:00:16.214Z,9.90
2023-03-25T22:02:44.554Z,9.80
2023-03-25T22:05:18.604Z,9.70
2023-03-25T22:07:45.492Z,9.70
2023-03-25T22:10:12.358Z,9.70
2023-03-25T22:12:39.157Z,9.60
2023-03-25T22:15:06.614Z,9.60
2023-03-25T22:17:33.334Z,9.50
2023-03-25T22:20:00.356Z,9.50
2023-03-25T22:22:27.571Z,9.60
2023-03-25T22:24:56.512Z,10.10
2023-03-25T22:27:25.757Z,9.50
2023-03-25T22:29:52.421Z,9.50
2023-03-25T22:32:19.252Z,9.40
2023-03-25T22:34:46.082Z,9.40
2023-03-25T22:37:14.999Z,9.40
2023-03-25T22:39:41.963Z,9.30
2023-03-25T22:42:08.775Z,9.30
2023-03-25T22:44:35.589Z,9.30
2023-03-25T22:47:03.301Z,9.40
2023-03-25T22:49:32.559Z,9.20
2023-03-25T22:52:01.586Z,9.30
2023-03-25T22:54:30.523Z,9.30
2023-03-25T22:56:57.414Z,9.80
2023-03-25T22:59:24.240Z,9.30
2023-03-25T23:01:56.028Z,9.30
2023-03-25T23:04:24.907Z,9.30
2023-03-25T23:07:06.877Z,9.30
2023-03-25T23:09:47.480Z,9.30
2023-03-25T23:12:22.857Z,9.40
2023-03-25T23:14:54.289Z,9.60
2023-03-25T23:17:24.828Z,9.30
2023-03-25T23:19:52.405Z,9.40
2023-03-25T23:22:19.859Z,9.60
2023-03-25T23:24:49.118Z,9.30
2023-03-25T23:27:20.849Z,9.30
2023-03-25T23:29:50.006Z,9.30
2023-03-25T23:32:21.562Z,9.30
2023-03-25T23:34:48.538Z,9.30
2023-03-25T23:37:18.279Z,9.30
2023-03-25T23:39:47.546Z,9.50
2023-03-25T23:42:14.243Z,9.20
2023-03-25T23:44:43.813Z,9.20
2023-03-25T23:47:12.768Z,9.20
2023-03-25T23:49:44.120Z,9.20
2023-03-25T23:52:11.637Z,9.10
2023-03-25T23:54:39.387Z,9.10
2023-03-25T23:57:06.368Z,9.20
2023-03-25T23:59:33.253Z,9.20
